Time;durP1;ratioP1;P1;durP2;ratioP2;P2;SDS_P1;SDS_P2;PMS_P1;PMS_P2;Temp;Humidity;BMP_temperature;BMP_pressure;BME280_temperature;BME280_humidity;BME280_pressure;Samples;Min_cycle;Max_cycle;Signal;HPM_P1;HPM_P2
2023/10/04 00:00:30;;;;;;;7.57;1.60;;;14.80;99.90;;;;;;6049877;23;20180;-92
2023/10/04 00:02:56;;;;;;;4.93;0.80;;;14.90;99.90;;;;;;6050085;23;20185;-91
2023/10/04 00:05:24;;;;;;;5.97;0.90;;;14.90;99.90;;;;;;6049213;23;20551;-93
2023/10/04 00:07:52;;;;;;;1.70;0.57;;;14.90;99.90;;;;;;6049831;23;20193;-91
2023/10/04 00:10:21;;;;;;;1.87;0.77;;;14.90;99.90;;;;;;6048901;23;20683;-92
2023/10/04 00:12:47;;;;;;;0.60;0.60;;;14.90;99.90;;;;;;6098148;23;20193;-91
2023/10/04 00:15:13;;;;;;;0.50;0.40;;;14.90;99.90;;;;;;6049551;23;20157;-91
2023/10/04 00:17:41;;;;;;;3.20;1.83;;;14.80;99.90;;;;;;6098782;23;20204;-92
2023/10/04 00:20:10;;;;;;;10.00;1.00;;;14.90;99.90;;;;;;6073268;23;20250;-89
2023/10/04 00:22:38;;;;;;;5.20;0.67;;;14.90;99.90;;;;;;6073029;23;20197;-92
2023/10/04 00:25:04;;;;;;;5.47;1.03;;;14.90;99.90;;;;;;6072278;23;20654;-91
2023/10/04 00:27:30;;;;;;;0.73;0.50;;;14.90;99.90;;;;;;6048959;23;20164;-91
2023/10/04 00:29:56;;;;;;;2.60;1.10;;;14.80;99.90;;;;;;6073970;23;20172;-91
2023/10/04 00:32:22;;;;;;;1.43;0.80;;;14.80;99.90;;;;;;6073237;23;20196;-91
2023/10/04 00:34:48;;;;;;;3.17;0.93;;;14.90;99.90;;;;;;6049285;23;20247;-91
2023/10/04 00:37:15;;;;;;;3.80;0.93;;;14.90;99.90;;;;;;6072670;23;20282;-92
2023/10/04 00:39:41;;;;;;;13.90;2.37;;;14.90;99.90;;;;;;6049765;23;20686;-93
2023/10/04 00:42:09;;;;;;;0.70;0.70;;;14.90;99.90;;;;;;6073521;23;20161;-92
2023/10/04 00:44:36;;;;;;;0.63;0.57;;;14.80;99.90;;;;;;6073806;23;20224;-92
2023/10/04 00:47:05;;;;;;;2.97;0.97;;;14.80;99.90;;;;;;6048861;23;20243;-93
2023/10/04 00:49:34;;;;;;;5.13;1.13;;;14.80;99.90;;;;;;6073261;23;20313;-94
2023/10/04 00:52:02;;;;;;;6.50;0.77;;;14.90;99.90;;;;;;6054359;23;20219;-94
2023/10/04 00:54:29;;;;;;;4.33;0.40;;;14.80;99.90;;;;;;6100736;23;20526;-92
2023/10/04 00:56:56;;;;;;;5.10;1.10;;;14.80;99.90;;;;;;6101885;23;20160;-91
2023/10/04 00:59:21;;;;;;;0.47;0.47;;;14.60;99.90;;;;;;6101322;23;20267;-92
2023/10/04 01:01:48;;;;;;;1.80;0.73;;;14.60;99.90;;;;;;6053062;23;20224;-93
2023/10/04 01:04:14;;;;;;;1.97;0.67;;;14.60;99.90;;;;;;6101077;23;20192;-92
2023/10/04 01:06:41;;;;;;;0.50;0.50;;;14.60;99.90;;;;;;6101335;23;20660;-94
2023/10/04 01:09:08;;;;;;;3.00;0.67;;;14.70;99.90;;;;;;6054453;23;20166;-95
2023/10/04 01:11:35;;;;;;;1.90;0.93;;;14.80;99.90;;;;;;6076977;23;20206;-95
2023/10/04 01:14:18;;;;;;;5.40;1.93;;;14.80;99.90;;;;;;6054030;23;20210;-93
2023/10/04 01:16:44;;;;;;;0.40;0.40;;;14.80;99.90;;;;;;6101569;23;20202;-95
2023/10/04 01:19:14;;;;;;;2.33;0.93;;;14.80;99.90;;;;;;6076670;23;20571;-93
2023/10/04 01:21:40;;;;;;;0.23;0.23;;;14.70;99.90;;;;;;6102178;23;20266;-92
2023/10/04 01:24:09;;;;;;;4.33;1.47;;;14.70;99.90;;;;;;6077492;23;20157;-91
2023/10/04 01:26:39;;;;;;;1.97;0.80;;;14.70;99.90;;;;;;6101866;23;20207;-94
2023/10/04 01:29:08;;;;;;;1.87;0.83;;;14.70;99.90;;;;;;6077808;23;20195;-92
2023/10/04 01:31:35;;;;;;;6.50;0.93;;;14.70;99.90;;;;;;6100680;23;20218;-91
2023/10/04 01:34:03;;;;;;;4.63;1.07;;;14.70;99.90;;;;;;6100083;23;20200;-90
2023/10/04 01:36:31;;;;;;;3.13;1.07;;;14.70;99.90;;;;;;6101062;23;20209;-91
2023/10/04 01:38:57;;;;;;;4.47;1.70;;;14.70;99.90;;;;;;6055312;23;20207;-92
2023/10/04 01:41:24;;;;;;;7.63;1.20;;;14.70;99.90;;;;;;6100831;23;20223;-91
2023/10/04 01:43:53;;;;;;;3.30;0.83;;;14.70;99.90;;;;;;6100341;23;20258;-92
2023/10/04 01:46:19;;;;;;;2.63;1.03;;;14.70;99.90;;;;;;6100500;23;20243;-92
2023/10/04 01:48:45;;;;;;;4.77;0.93;;;14.70;99.90;;;;;;6076318;23;20669;-95
2023/10/04 01:51:12;;;;;;;1.17;0.77;;;14.70;99.90;;;;;;6077379;23;20188;-93
2023/10/04 01:53:42;;;;;;;3.40;0.83;;;14.70;99.90;;;;;;6100338;23;20207;-94
2023/10/04 01:56:08;;;;;;;5.30;0.80;;;14.70;99.90;;;;;;6077693;23;20210;-90
2023/10/04 01:58:34;;;;;;;0.40;0.40;;;14.80;99.90;;;;;;6100489;23;20196;-92
2023/10/04 02:01:00;;;;;;;1.77;1.00;;;14.80;99.90;;;;;;6076722;23;20200;-90
2023/10/04 02:03:27;;;;;;;2.37;0.47;;;14.90;99.90;;;;;;6076847;23;20183;-91
2023/10/04 02:05:59;;;;;;;2.00;0.70;;;14.90;99.90;;;;;;6127326;23;20468;-91
2023/10/04 02:08:26;;;;;;;9.77;0.90;;;14.90;99.90;;;;;;6100678;23;20216;-92
2023/10/04 02:10:54;;;;;;;7.43;1.03;;;14.90;99.90;;;;;;6125977;23;20665;-89
2023/10/04 02:13:20;;;;;;;4.23;1.63;;;14.90;99.90;;;;;;6077145;23;20240;-94
2023/10/04 02:15:51;;;;;;;1.20;0.93;;;14.90;99.90;;;;;;6076952;23;20271;-94
2023/10/04 02:18:19;;;;;;;2.67;0.67;;;14.80;99.90;;;;;;6100641;23;20151;-91
2023/10/04 02:20:47;;;;;;;2.50;1.43;;;14.80;99.90;;;;;;6102436;23;20160;-90
2023/10/04 02:23:13;;;;;;;4.47;0.60;;;14.80;99.90;;;;;;6100952;23;20292;-92
2023/10/04 02:25:39;;;;;;;6.93;0.93;;;14.70;99.90;;;;;;6076624;23;20642;-93
2023/10/04 02:28:18;;;;;;;0.53;0.53;;;14.80;99.90;;;;;;6100663;23;20200;-91
2023/10/04 02:30:47;;;;;;;5.93;1.03;;;14.70;99.90;;;;;;6057932;23;20208;-92
2023/10/04 02:33:14;;;;;;;0.50;0.50;;;14.70;99.90;;;;;;6077263;23;20168;-93
2023/10/04 02:35:48;;;;;;;4.73;1.23;;;14.80;99.90;;;;;;6127252;23;20616;-91
2023/10/04 02:38:16;;;;;;;4.77;1.47;;;14.80;99.90;;;;;;6053415;23;20199;-92
2023/10/04 02:40:50;;;;;;;4.23;1.13;;;14.90;99.90;;;;;;6100959;23;20267;-91
2023/10/04 02:43:23;;;;;;;1.90;1.20;;;14.90;99.90;;;;;;6112014;23;20668;-92
2023/10/04 02:45:50;;;;;;;0.70;0.50;;;14.90;99.90;;;;;;6079481;23;20234;-91
2023/10/04 02:48:17;;;;;;;1.70;1.23;;;14.80;99.90;;;;;;6079402;23;20466;-91
2023/10/04 02:50:43;;;;;;;1.53;0.53;;;14.90;99.90;;;;;;6103227;23;20211;-91
2023/10/04 02:53:13;;;;;;;3.73;0.80;;;15.00;99.90;;;;;;6101653;23;20214;-90
2023/10/04 02:55:39;;;;;;;4.30;1.40;;;14.90;99.90;;;;;;6126355;23;20638;-90
2023/10/04 02:58:06;;;;;;;2.30;1.33;;;14.80;99.90;;;;;;6101994;23;20202;-91
2023/10/04 03:00:33;;;;;;;2.87;1.10;;;14.70;99.90;;;;;;6078630;23;21231;-90
2023/10/04 03:02:59;;;;;;;3.23;0.77;;;14.70;99.90;;;;;;6103190;23;20571;-89
2023/10/04 03:05:28;;;;;;;8.23;1.57;;;14.70;99.90;;;;;;6101743;23;20267;-90
2023/10/04 03:07:55;;;;;;;1.87;1.00;;;14.60;99.90;;;;;;6102054;23;20211;-91
2023/10/04 03:10:24;;;;;;;7.87;2.20;;;14.50;99.90;;;;;;6053060;23;20207;-91
2023/10/04 03:12:56;;;;;;;9.63;1.10;;;14.50;99.90;;;;;;6078432;23;20200;-92
2023/10/04 03:15:23;;;;;;;1.73;1.03;;;14.40;99.90;;;;;;6102283;23;20171;-91
2023/10/04 03:17:53;;;;;;;3.63;0.60;;;14.40;99.90;;;;;;6079362;23;20163;-92
2023/10/04 03:20:23;;;;;;;2.10;0.80;;;14.30;99.90;;;;;;6102322;23;20195;-94
2023/10/04 03:22:55;;;;;;;0.70;0.60;;;14.40;99.90;;;;;;6102052;23;20211;-92
2023/10/04 03:25:26;;;;;;;3.17;1.00;;;14.40;99.90;;;;;;6101414;23;20225;-91
2023/10/04 03:27:53;;;;;;;1.93;1.67;;;14.40;99.90;;;;;;6078568;23;20669;-91
2023/10/04 03:30:20;;;;;;;1.13;0.97;;;14.50;99.90;;;;;;6077918;23;20251;-93
2023/10/04 03:32:51;;;;;;;2.63;0.40;;;14.50;99.90;;;;;;6102600;23;20160;-92
2023/10/04 03:35:20;;;;;;;5.77;0.70;;;14.50;99.90;;;;;;6102309;23;20595;-90
2023/10/04 03:37:58;;;;;;;4.57;0.53;;;14.60;99.90;;;;;;6101609;23;20274;-93
2023/10/04 03:40:30;;;;;;;0.30;0.30;;;14.60;99.90;;;;;;6080299;23;20282;-93
2023/10/04 03:42:56;;;;;;;1.23;0.60;;;14.60;99.90;;;;;;6056143;23;20191;-91
2023/10/04 03:45:23;;;;;;;0.80;0.60;;;14.70;99.90;;;;;;6053996;23;20156;-88
2023/10/04 03:47:50;;;;;;;4.80;1.13;;;14.70;99.90;;;;;;6079166;23;20164;-92
2023/10/04 03:50:19;;;;;;;1.93;1.00;;;14.60;99.90;;;;;;6054861;23;20226;-92
2023/10/04 03:52:47;;;;;;;0.83;0.50;;;14.60;99.90;;;;;;6101334;23;20279;-91
2023/10/04 03:55:14;;;;;;;3.23;0.93;;;14.60;99.90;;;;;;6101516;23;20200;-93
2023/10/04 03:57:42;;;;;;;6.10;1.03;;;14.70;99.90;;;;;;6100941;23;20196;-91
2023/10/04 04:00:13;;;;;;;6.03;1.60;;;14.70;99.90;;;;;;6102500;23;20288;-90
2023/10/04 04:02:39;;;;;;;3.10;0.50;;;14.70;99.90;;;;;;6054001;23;20231;-89
2023/10/04 04:05:09;;;;;;;8.03;1.43;;;14.70;99.90;;;;;;6078037;23;20198;-92
2023/10/04 04:07:35;;;;;;;0.67;0.67;;;14.70;99.90;;;;;;6101491;23;20204;-93
2023/10/04 04:10:05;;;;;;;3.20;1.03;;;14.70;99.90;;;;;;6101457;23;20511;-91
2023/10/04 04:12:31;;;;;;;13.70;1.00;;;14.70;99.90;;;;;;6101571;23;20214;-92
2023/10/04 04:14:57;;;;;;;1.80;0.60;;;14.70;99.90;;;;;;6077873;23;20639;-91
2023/10/04 04:17:23;;;;;;;1.37;1.27;;;14.70;99.90;;;;;;6077629;23;20196;-89
2023/10/04 04:19:49;;;;;;;10.20;1.40;;;14.60;99.90;;;;;;6053434;23;20215;-88
2023/10/04 04:22:23;;;;;;;3.00;0.87;;;14.70;99.90;;;;;;6100819;23;20196;-91
2023/10/04 04:24:50;;;;;;;5.10;1.13;;;14.70;99.90;;;;;;6102087;23;20191;-91
2023/10/04 04:27:22;;;;;;;2.20;0.77;;;14.70;99.90;;;;;;6101410;23;20180;-89
2023/10/04 04:29:54;;;;;;;8.63;1.70;;;14.70;99.90;;;;;;6057298;23;20206;-89
2023/10/04 04:32:26;;;;;;;1.43;0.87;;;14.70;99.90;;;;;;6101543;23;20231;-89
2023/10/04 04:34:54;;;;;;;4.60;0.83;;;14.70;99.90;;;;;;6078327;23;20200;-90
2023/10/04 04:37:21;;;;;;;6.77;1.27;;;14.70;99.90;;;;;;6101303;23;20268;-90
2023/10/04 04:39:47;;;;;;;1.60;0.70;;;14.70;99.90;;;;;;6102919;23;20222;-90
2023/10/04 04:42:22;;;;;;;0.50;0.50;;;14.70;99.90;;;;;;6078221;23;20602;-91
2023/10/04 04:44:48;;;;;;;3.20;1.70;;;14.70;99.90;;;;;;6068408;23;20148;-90
2023/10/04 04:47:17;;;;;;;3.50;1.00;;;14.70;99.90;;;;;;6070085;23;20614;-89
2023/10/04 04:49:43;;;;;;;8.00;1.30;;;14.70;99.90;;;;;;6094055;23;20200;-92
2023/10/04 04:52:09;;;;;;;0.67;0.67;;;14.60;99.90;;;;;;6090948;23;20212;-91
2023/10/04 04:54:35;;;;;;;2.53;2.33;;;14.60;99.90;;;;;;6092394;23;20629;-90
2023/10/04 04:57:02;;;;;;;7.07;1.00;;;14.60;99.90;;;;;;6066073;23;20157;-90
2023/10/04 04:59:28;;;;;;;2.50;1.13;;;14.50;99.90;;;;;;6089295;23;20266;-91
2023/10/04 05:01:55;;;;;;;2.40;0.80;;;14.50;99.90;;;;;;6089393;23;20275;-91
2023/10/04 05:04:22;;;;;;;2.03;0.80;;;14.50;99.90;;;;;;6089693;23;20244;-91
2023/10/04 05:06:49;;;;;;;2.47;1.30;;;14.50;99.90;;;;;;6109074;23;20192;-93
2023/10/04 05:09:17;;;;;;;2.43;1.10;;;14.50;99.90;;;;;;6086493;23;20156;-90
2023/10/04 05:11:45;;;;;;;6.23;1.10;;;14.50;99.90;;;;;;6105034;23;20228;-90
2023/10/04 05:14:11;;;;;;;1.60;0.93;;;14.50;99.90;;;;;;6111872;23;20263;-91
2023/10/04 05:16:37;;;;;;;3.50;1.17;;;14.40;99.90;;;;;;6115068;23;20196;-90
2023/10/04 05:19:04;;;;;;;2.87;0.80;;;14.40;99.90;;;;;;6112993;23;20211;-91
2023/10/04 05:21:30;;;;;;;2.33;0.73;;;14.40;99.90;;;;;;6078623;23;20192;-91
2023/10/04 05:23:56;;;;;;;1.13;0.50;;;14.40;99.90;;;;;;6055779;23;20156;-91
2023/10/04 05:26:22;;;;;;;1.30;0.87;;;14.40;99.90;;;;;;6078169;23;20258;-90
2023/10/04 05:28:48;;;;;;;3.20;1.50;;;14.40;99.90;;;;;;6103997;23;20267;-91
2023/10/04 05:31:14;;;;;;;10.53;1.33;;;14.40;99.90;;;;;;6079854;23;20218;-90
2023/10/04 05:33:39;;;;;;;0.83;0.83;;;14.40;99.90;;;;;;6059078;23;20188;-90
2023/10/04 05:36:06;;;;;;;1.30;1.13;;;14.30;99.90;;;;;;6083642;23;20248;-90
2023/10/04 05:38:33;;;;;;;2.77;1.37;;;14.30;99.90;;;;;;6083633;23;20223;-91
2023/10/04 05:41:00;;;;;;;2.87;1.00;;;14.30;99.90;;;;;;6109474;23;20199;-91
2023/10/04 05:43:28;;;;;;;3.07;1.27;;;14.30;99.90;;;;;;6086285;23;20200;-92
2023/10/04 05:45:54;;;;;;;3.53;1.70;;;14.30;99.90;;;;;;6064127;23;20219;-91
2023/10/04 05:48:20;;;;;;;1.67;0.87;;;14.20;99.90;;;;;;6063204;23;20251;-90
2023/10/04 05:50:49;;;;;;;3.47;0.97;;;14.20;99.90;;;;;;6089477;23;20195;-90
2023/10/04 05:53:19;;;;;;;2.90;1.17;;;14.20;99.90;;;;;;6112633;23;20274;-91
2023/10/04 05:55:46;;;;;;;5.30;1.30;;;14.20;99.90;;;;;;6083741;23;20203;-92
2023/10/04 05:58:11;;;;;;;5.87;2.77;;;14.30;99.90;;;;;;6081127;23;20192;-91
2023/10/04 06:00:46;;;;;;;6.23;1.20;;;14.30;99.90;;;;;;6079286;23;20198;-90
2023/10/04 06:03:12;;;;;;;4.30;1.30;;;14.30;99.90;;;;;;6081871;23;20155;-90
2023/10/04 06:05:39;;;;;;;2.63;1.80;;;14.30;99.90;;;;;;6104161;23;20274;-92
2023/10/04 06:08:11;;;;;;;3.40;2.30;;;14.30;99.90;;;;;;6103683;23;20258;-91
2023/10/04 06:10:38;;;;;;;6.53;1.23;;;14.40;99.90;;;;;;6104485;23;20269;-91
2023/10/04 06:13:08;;;;;;;3.43;1.43;;;14.40;99.90;;;;;;6103073;23;20239;-90
2023/10/04 06:15:33;;;;;;;1.30;1.13;;;14.50;99.90;;;;;;6103041;23;20638;-91
2023/10/04 06:18:00;;;;;;;2.23;1.33;;;14.60;99.90;;;;;;6078866;23;20176;-89
2023/10/04 06:20:30;;;;;;;3.60;2.07;;;14.70;99.90;;;;;;6054992;23;20230;-88
2023/10/04 06:22:57;;;;;;;1.60;1.23;;;14.80;99.90;;;;;;6056672;23;20192;-86
2023/10/04 06:25:24;;;;;;;1.37;0.87;;;15.00;99.90;;;;;;6127365;23;20202;-88
2023/10/04 06:27:52;;;;;;;3.07;1.80;;;15.10;99.90;;;;;;6102907;23;20192;-87
2023/10/04 06:30:26;;;;;;;6.83;2.30;;;15.30;99.90;;;;;;6128089;23;20179;-88
2023/10/04 06:32:56;;;;;;;6.20;0.70;;;15.50;99.90;;;;;;6102939;23;20145;-90
2023/10/04 06:35:24;;;;;;;7.53;1.97;;;15.70;99.90;;;;;;6078484;23;20195;-88
2023/10/04 06:37:55;;;;;;;2.53;1.60;;;15.80;99.90;;;;;;6102251;23;20199;-89
2023/10/04 06:40:21;;;;;;;5.70;1.17;;;16.00;99.90;;;;;;6128220;23;20245;-90
2023/10/04 06:42:49;;;;;;;4.80;0.77;;;16.10;99.90;;;;;;6054101;23;20191;-88
2023/10/04 06:45:16;;;;;;;7.93;1.20;;;16.00;99.90;;;;;;6078779;23;20156;-90
2023/10/04 06:47:44;;;;;;;6.10;1.93;;;15.90;99.90;;;;;;6128333;23;20171;-89
2023/10/04 06:50:20;;;;;;;1.90;1.30;;;16.00;99.90;;;;;;6078608;23;20227;-89
2023/10/04 06:52:51;;;;;;;10.00;1.93;;;16.50;99.90;;;;;;6101386;23;20299;-90
2023/10/04 06:55:19;;;;;;;1.70;1.60;;;16.70;99.90;;;;;;6102107;23;20203;-89
2023/10/04 06:57:46;;;;;;;3.83;1.93;;;16.40;99.90;;;;;;6078051;23;20278;-90
2023/10/04 07:00:15;;;;;;;3.90;1.77;;;16.20;99.90;;;;;;6103223;23;20164;-89
2023/10/04 07:02:47;;;;;;;1.93;1.43;;;15.90;99.90;;;;;;6127579;23;20187;-89
2023/10/04 07:05:20;;;;;;;1.60;1.30;;;16.00;99.90;;;;;;6101608;23;20196;-87
2023/10/04 07:07:47;;;;;;;3.43;1.30;;;16.20;99.90;;;;;;6102004;23;20203;-88
2023/10/04 07:10:15;;;;;;;3.47;1.40;;;16.10;99.90;;;;;;6101652;23;20196;-90
2023/10/04 07:12:43;;;;;;;2.23;1.27;;;16.10;99.90;;;;;;6113000;23;20295;-89
2023/10/04 07:15:10;;;;;;;1.83;1.07;;;16.40;99.90;;;;;;6102788;23;20161;-89
2023/10/04 07:17:39;;;;;;;6.17;1.97;;;16.50;99.90;;;;;;6078583;23;20196;-89
2023/10/04 07:20:14;;;;;;;2.97;1.57;;;16.80;99.90;;;;;;6078339;23;20200;-89
2023/10/04 07:22:59;;;;;;;3.37;1.83;;;17.10;99.90;;;;;;6079624;23;20660;-90
2023/10/04 07:25:31;;;;;;;1.93;1.30;;;17.70;99.90;;;;;;6102175;23;20263;-87
2023/10/04 07:28:02;;;;;;;5.43;2.30;;;18.00;99.90;;;;;;6127096;23;20196;-89
2023/10/04 07:30:33;;;;;;;8.33;1.43;;;18.30;99.90;;;;;;6101621;23;20184;-88
2023/10/04 07:32:59;;;;;;;3.33;1.23;;;18.90;99.90;;;;;;6103673;23;20149;-88
2023/10/04 07:35:28;;;;;;;6.43;1.93;;;19.40;99.90;;;;;;6077133;23;20266;-88
2023/10/04 07:37:55;;;;;;;4.10;1.27;;;19.60;99.90;;;;;;6101549;23;20263;-89
2023/10/04 07:40:23;;;;;;;4.37;2.17;;;19.90;99.90;;;;;;6101576;23;20283;-88
2023/10/04 07:42:52;;;;;;;5.07;1.73;;;20.50;99.90;;;;;;6102197;23;20222;-87
2023/10/04 07:45:21;;;;;;;5.63;1.37;;;20.70;99.90;;;;;;6102807;23;20149;-88
2023/10/04 07:47:47;;;;;;;2.67;1.70;;;20.40;99.90;;;;;;6078555;23;20152;-89
2023/10/04 07:50:15;;;;;;;6.77;2.10;;;20.40;99.90;;;;;;6053795;23;20550;-88
2023/10/04 07:52:44;;;;;;;3.57;1.87;;;20.70;99.90;;;;;;6101180;23;20211;-88
2023/10/04 07:55:17;;;;;;;6.00;1.57;;;20.10;99.90;;;;;;6077375;23;20273;-87
2023/10/04 07:57:47;;;;;;;3.40;1.83;;;19.30;99.90;;;;;;6101129;23;20222;-87
2023/10/04 08:00:17;;;;;;;7.53;1.73;;;18.50;99.90;;;;;;6101640;23;20156;-86
2023/10/04 08:02:49;;;;;;;3.33;1.30;;;18.20;99.90;;;;;;6103422;23;20156;-86
2023/10/04 08:05:18;;;;;;;6.87;2.00;;;18.00;99.90;;;;;;6101245;23;20271;-86
2023/10/04 08:07:52;;;;;;;3.07;1.90;;;18.20;99.90;;;;;;6100909;23;20626;-87
2023/10/04 08:10:23;;;;;;;3.70;1.97;;;18.70;99.90;;;;;;6100669;23;20339;-88
2023/10/04 08:12:51;;;;;;;5.63;2.00;;;19.90;99.90;;;;;;6054700;23;20191;-88
2023/10/04 08:15:20;;;;;;;6.93;2.20;;;20.00;99.90;;;;;;6126381;23;20450;-88
2023/10/04 08:17:49;;;;;;;5.03;1.40;;;21.10;99.90;;;;;;6102926;23;20220;-94
2023/10/04 08:20:20;;;;;;;3.10;1.63;;;21.40;99.90;;;;;;6101840;23;20199;-87
2023/10/04 08:22:46;;;;;;;3.77;1.27;;;21.80;99.90;;;;;;6101362;23;20188;-90
2023/10/04 08:25:16;;;;;;;9.40;1.57;;;22.50;99.90;;;;;;6101559;23;20215;-91
2023/10/04 08:27:42;;;;;;;4.83;2.10;;;23.00;99.90;;;;;;6127594;23;20575;-91
2023/10/04 08:30:13;;;;;;;2.63;2.00;;;22.80;99.90;;;;;;6127193;23;20164;-91
2023/10/04 08:32:41;;;;;;;1.50;1.35;;;22.20;99.90;;;;;;6102027;23;20259;-90
2023/10/04 08:35:21;;;;;;;3.10;1.95;;;22.40;99.90;;;;;;6100668;23;20223;-92
2023/10/04 08:37:55;;;;;;;3.72;1.67;;;22.20;99.90;;;;;;6101509;23;20191;-91
2023/10/04 08:40:23;;;;;;;5.20;1.80;;;21.80;99.90;;;;;;6101269;23;20202;-90
2023/10/04 08:42:53;;;;;;;1.92;1.40;;;21.60;99.90;;;;;;6101264;23;20215;-90
2023/10/04 08:45:20;;;;;;;4.43;1.42;;;21.20;99.90;;;;;;6077691;23;20155;-90
2023/10/04 08:47:52;;;;;;;8.02;1.95;;;20.60;99.90;;;;;;6101401;23;20579;-91
2023/10/04 08:50:37;;;;;;;5.03;1.50;;;20.40;99.90;;;;;;6100502;23;20658;-91
2023/10/04 08:53:21;;;;;;;3.47;1.55;;;19.90;99.90;;;;;;6124943;23;20234;-91
2023/10/04 08:55:56;;;;;;;3.10;1.30;;;19.50;99.90;;;;;;6126306;23;20199;-91
2023/10/04 08:58:22;;;;;;;5.60;1.93;;;19.70;99.90;;;;;;6126009;23;20669;-90
2023/10/04 09:00:50;;;;;;;6.07;1.93;;;18.90;99.90;;;;;;6126151;23;20204;-92
2023/10/04 09:03:18;;;;;;;5.03;1.90;;;19.00;99.90;;;;;;6101391;23;20152;-92
2023/10/04 09:05:47;;;;;;;2.07;1.30;;;18.80;99.90;;;;;;6104236;23;20152;-91
2023/10/04 09:08:15;;;;;;;2.27;1.30;;;18.80;99.90;;;;;;6103094;23;20200;-92
2023/10/04 09:10:42;;;;;;;2.33;1.00;;;18.80;99.90;;;;;;6102707;23;20203;-90
2023/10/04 09:13:09;;;;;;;2.83;1.90;;;18.60;99.90;;;;;;6066474;23;20192;-90
2023/10/04 09:15:36;;;;;;;2.90;1.97;;;18.20;99.90;;;;;;6078462;23;20199;-94
2023/10/04 09:18:04;;;;;;;5.70;1.60;;;17.90;99.90;;;;;;6102594;23;20172;-92
2023/10/04 09:20:32;;;;;;;3.43;1.97;;;17.70;99.90;;;;;;6100650;23;20204;-93
2023/10/04 09:23:01;;;;;;;3.43;1.27;;;17.80;99.90;;;;;;6101360;23;20196;-92
2023/10/04 09:25:40;;;;;;;3.77;1.57;;;17.80;99.90;;;;;;6087451;23;20614;-92
2023/10/04 09:28:12;;;;;;;4.07;1.47;;;18.00;99.90;;;;;;6101368;23;20218;-90
2023/10/04 09:30:38;;;;;;;4.30;1.60;;;18.00;99.90;;;;;;6100343;23;20219;-90
2023/10/04 09:33:28;;;;;;;8.37;1.93;;;18.10;99.90;;;;;;6101794;23;20233;-90
2023/10/04 09:35:55;;;;;;;3.13;1.73;;;18.10;99.90;;;;;;6127179;23;20199;-90
2023/10/04 09:38:25;;;;;;;5.13;1.70;;;18.10;99.90;;;;;;6100306;23;20192;-92
2023/10/04 09:40:55;;;;;;;3.13;1.53;;;18.10;99.90;;;;;;6125280;23;20207;-91
2023/10/04 09:43:35;;;;;;;1.93;1.73;;;18.30;99.90;;;;;;6101024;23;20663;-91
2023/10/04 09:46:02;;;;;;;3.50;1.67;;;18.20;99.90;;;;;;6100063;23;20206;-91
2023/10/04 09:48:33;;;;;;;5.03;2.07;;;18.20;99.90;;;;;;6101167;23;20166;-88
2023/10/04 09:51:01;;;;;;;7.57;3.07;;;18.10;99.90;;;;;;6100978;23;20634;-89
2023/10/04 09:53:30;;;;;;;8.33;2.07;;;18.20;99.90;;;;;;6076696;23;20212;-90
2023/10/04 09:56:03;;;;;;;5.00;2.03;;;18.20;99.90;;;;;;6099846;23;20560;-89
2023/10/04 09:58:31;;;;;;;1.53;1.20;;;18.00;99.90;;;;;;6100733;23;20247;-89
2023/10/04 10:01:12;;;;;;;2.17;1.33;;;17.80;99.90;;;;;;6125957;23;20192;-90
2023/10/04 10:03:49;;;;;;;6.77;2.17;;;18.00;99.90;;;;;;6100030;23;20725;-90
2023/10/04 10:06:22;;;;;;;4.37;1.90;;;17.80;99.90;;;;;;6100304;23;20151;-92
2023/10/04 10:08:52;;;;;;;6.53;1.63;;;17.90;99.90;;;;;;6101101;23;20156;-89
2023/10/04 10:11:19;;;;;;;7.03;1.63;;;17.80;99.90;;;;;;6125889;23;20200;-88
2023/10/04 10:13:46;;;;;;;3.63;1.47;;;17.70;99.90;;;;;;6100348;23;20265;-90
2023/10/04 10:16:13;;;;;;;2.80;2.07;;;17.80;99.90;;;;;;6100503;23;20636;-89
2023/10/04 10:18:39;;;;;;;3.40;1.57;;;17.70;99.90;;;;;;6125894;23;20618;-88
2023/10/04 10:21:08;;;;;;;1.87;1.23;;;17.60;99.90;;;;;;6101325;23;20299;-90
2023/10/04 10:23:54;;;;;;;3.70;1.60;;;17.50;99.90;;;;;;6101546;23;20196;-91
2023/10/04 10:26:20;;;;;;;3.60;2.03;;;17.50;99.90;;;;;;6126479;23;20196;-90
2023/10/04 10:28:47;;;;;;;2.07;1.17;;;17.50;99.90;;;;;;6076910;23;20570;-89
2023/10/04 10:31:20;;;;;;;1.97;1.37;;;17.50;99.90;;;;;;6100321;23;20208;-88
2023/10/04 10:33:47;;;;;;;2.03;0.90;;;17.40;99.90;;;;;;6099975;23;20196;-88
2023/10/04 10:36:24;;;;;;;2.43;1.10;;;17.40;99.90;;;;;;6100277;23;20163;-87
2023/10/04 10:38:51;;;;;;;6.70;1.13;;;17.40;99.90;;;;;;6100764;23;20160;-92
2023/10/04 10:41:32;;;;;;;9.27;1.90;;;17.40;99.90;;;;;;6100470;23;20493;-90
2023/10/04 10:44:30;;;;;;;3.20;1.03;;;17.30;99.90;;;;;;6125136;23;20263;-90
2023/10/04 10:46:58;;;;;;;2.27;1.30;;;17.40;99.90;;;;;;6124053;23;20267;-93
2023/10/04 10:49:50;;;;;;;4.30;1.20;;;17.70;99.90;;;;;;6100183;23;20214;-88
2023/10/04 10:52:30;;;;;;;6.17;2.93;;;18.30;99.90;;;;;;6123928;23;20646;-90
2023/10/04 10:54:58;;;;;;;5.80;1.87;;;18.50;99.90;;;;;;6100053;23;20677;-92
2023/10/04 10:57:28;;;;;;;2.33;0.90;;;18.50;99.90;;;;;;6099970;23;20171;-91
2023/10/04 10:59:56;;;;;;;3.43;1.80;;;18.50;99.90;;;;;;6100547;23;20211;-91
2023/10/04 11:02:23;;;;;;;2.53;0.87;;;18.60;99.90;;;;;;6125745;23;20196;-88
2023/10/04 11:04:50;;;;;;;2.23;1.40;;;18.50;99.90;;;;;;6076602;23;20632;-91
2023/10/04 11:07:17;;;;;;;6.97;1.70;;;18.50;99.90;;;;;;6101629;23;20192;-91
2023/10/04 11:09:52;;;;;;;3.33;1.83;;;18.80;99.90;;;;;;6102374;23;20263;-91
2023/10/04 11:12:21;;;;;;;4.07;1.87;;;18.90;99.90;;;;;;6101744;23;20210;-90
2023/10/04 11:14:50;;;;;;;4.97;1.43;;;18.80;99.90;;;;;;6128334;23;20243;-91
2023/10/04 11:17:16;;;;;;;6.17;1.83;;;18.70;99.90;;;;;;6127666;23;20200;-90
2023/10/04 11:19:44;;;;;;;3.70;1.33;;;18.70;99.90;;;;;;6101358;23;20251;-90
2023/10/04 11:22:11;;;;;;;2.13;1.20;;;18.30;99.90;;;;;;6127660;23;20267;-92
2023/10/04 11:24:40;;;;;;;2.70;1.10;;;18.20;99.90;;;;;;6101088;23;20192;-89
2023/10/04 11:27:08;;;;;;;2.07;1.37;;;18.00;99.90;;;;;;6102634;23;20638;-90
2023/10/04 11:29:35;;;;;;;3.20;1.27;;;18.00;99.90;;;;;;6100632;23;20207;-91
2023/10/04 11:32:01;;;;;;;9.30;1.60;;;18.10;99.90;;;;;;6101214;23;20215;-89
2023/10/04 11:34:35;;;;;;;2.37;0.77;;;18.00;99.90;;;;;;6102060;23;20271;-91
2023/10/04 11:37:02;;;;;;;0.70;0.70;;;18.10;99.90;;;;;;6127417;23;20274;-92
2023/10/04 11:39:35;;;;;;;7.83;1.63;;;18.20;99.90;;;;;;6101390;23;20160;-90
2023/10/04 11:42:02;;;;;;;0.70;0.70;;;18.20;99.90;;;;;;6103557;23;20162;-92
2023/10/04 11:44:33;;;;;;;1.07;0.80;;;18.40;99.90;;;;;;6077896;23;20278;-90
2023/10/04 11:47:03;;;;;;;1.77;0.90;;;18.30;99.90;;;;;;6100330;23;20215;-91
2023/10/04 11:49:33;;;;;;;3.17;0.90;;;18.30;99.90;;;;;;6101229;23;20222;-93
2023/10/04 11:52:04;;;;;;;3.30;0.97;;;18.30;99.90;;;;;;6126865;23;20279;-93
2023/10/04 11:54:46;;;;;;;3.10;0.80;;;18.20;99.90;;;;;;6101518;23;20179;-90
2023/10/04 11:57:23;;;;;;;4.07;1.10;;;18.20;99.90;;;;;;6102371;23;20156;-93
2023/10/04 11:59:50;;;;;;;1.73;0.67;;;18.30;99.90;;;;;;6101822;23;20180;-93
2023/10/04 12:02:22;;;;;;;4.90;2.17;;;18.50;99.90;;;;;;6101786;23;20555;-90
2023/10/04 12:04:47;;;;;;;0.80;0.73;;;18.50;99.90;;;;;;6078779;23;20211;-91
2023/10/04 12:07:14;;;;;;;3.80;1.00;;;18.30;99.90;;;;;;6101098;23;20196;-91
2023/10/04 12:09:40;;;;;;;2.53;0.83;;;18.40;99.90;;;;;;6126289;23;20200;-89
2023/10/04 12:12:06;;;;;;;1.53;1.03;;;18.30;99.90;;;;;;6102380;23;20199;-93
2023/10/04 12:14:32;;;;;;;1.57;0.83;;;18.30;99.90;;;;;;6127207;23;20223;-91
2023/10/04 12:17:08;;;;;;;1.90;0.87;;;18.30;99.90;;;;;;6100323;23;20195;-90
2023/10/04 12:19:35;;;;;;;2.63;1.17;;;18.40;99.90;;;;;;6100983;23;20215;-92
2023/10/04 12:22:09;;;;;;;7.83;1.13;;;18.40;99.90;;;;;;6126367;23;20204;-91
2023/10/04 12:24:39;;;;;;;7.63;1.03;;;18.60;99.90;;;;;;6101070;23;20192;-91
2023/10/04 12:27:08;;;;;;;5.40;1.43;;;18.60;99.90;;;;;;6127827;23;20596;-90
2023/10/04 12:29:37;;;;;;;0.73;0.70;;;18.70;99.90;;;;;;6126624;23;20247;-91
2023/10/04 12:32:07;;;;;;;1.17;1.03;;;18.40;99.90;;;;;;6101809;23;20230;-93
2023/10/04 12:34:34;;;;;;;5.43;1.17;;;18.40;99.90;;;;;;6100689;23;20246;-92
2023/10/04 12:37:00;;;;;;;6.77;1.67;;;18.40;99.90;;;;;;6100580;23;20196;-91
2023/10/04 12:39:27;;;;;;;3.60;0.97;;;18.40;99.90;;;;;;6076842;23;20207;-91
2023/10/04 12:41:55;;;;;;;3.23;0.87;;;18.30;99.90;;;;;;6101738;23;20157;-92
2023/10/04 12:44:23;;;;;;;3.30;1.17;;;18.10;99.90;;;;;;6126824;23;20204;-93
2023/10/04 12:46:49;;;;;;;1.37;0.80;;;18.30;99.90;;;;;;6101168;23;20467;-89
2023/10/04 12:49:15;;;;;;;4.57;1.13;;;18.20;99.90;;;;;;6100261;23;20250;-91
2023/10/04 12:51:42;;;;;;;3.33;1.03;;;18.20;99.90;;;;;;6100637;23;20497;-89
2023/10/04 12:54:09;;;;;;;3.67;3.30;;;18.20;99.90;;;;;;6100715;23;20196;-90